createdAt,value
2018-03-26T00:00:26.544Z,5.00
2018-03-26T00:02:54.035Z,7.73
2018-03-26T00:05:21.508Z,5.80
2018-03-26T00:07:48.995Z,4.83
2018-03-26T00:10:16.481Z,5.80
2018-03-26T00:12:43.972Z,5.37
2018-03-26T00:15:11.476Z,6.17
2018-03-26T00:17:38.962Z,6.03
2018-03-26T00:20:06.468Z,6.33
2018-03-26T00:22:33.953Z,5.83
2018-03-26T00:25:01.441Z,6.17
2018-03-26T00:27:29.065Z,6.93
2018-03-26T00:29:56.547Z,7.33
2018-03-26T00:32:24.026Z,8.10
2018-03-26T00:34:51.622Z,5.23
2018-03-26T00:37:19.131Z,7.03
2018-03-26T00:39:46.622Z,7.23
2018-03-26T00:42:14.138Z,6.60
2018-03-26T00:44:41.631Z,8.37
2018-03-26T00:47:09.132Z,6.30
2018-03-26T00:49:36.618Z,6.83
2018-03-26T00:52:04.124Z,7.17
2018-03-26T00:54:31.619Z,7.23
2018-03-26T00:56:59.134Z,6.47
2018-03-26T00:59:26.686Z,7.20
2018-03-26T01:01:54.173Z,7.77
2018-03-26T01:04:21.702Z,6.47
2018-03-26T01:06:49.238Z,7.03
2018-03-26T01:09:16.727Z,7.67
2018-03-26T01:11:44.205Z,6.77
2018-03-26T01:14:11.674Z,7.10
2018-03-26T01:16:39.174Z,8.23
2018-03-26T01:19:06.679Z,8.83
2018-03-26T01:21:34.169Z,6.37
2018-03-26T01:24:01.660Z,7.53
2018-03-26T01:26:29.154Z,8.40
2018-03-26T01:28:56.664Z,11.20
2018-03-26T01:31:24.209Z,9.10
2018-03-26T01:33:51.709Z,10.67
2018-03-26T01:36:19.316Z,7.90
2018-03-26T01:38:46.793Z,7.87
2018-03-26T01:41:14.302Z,8.33
2018-03-26T01:43:41.781Z,8.47
2018-03-26T01:46:09.389Z,8.73
2018-03-26T01:48:36.877Z,10.30
2018-03-26T01:51:04.354Z,8.97
2018-03-26T01:53:31.829Z,7.67
2018-03-26T01:55:59.300Z,9.47
2018-03-26T01:58:26.789Z,9.10
2018-03-26T02:00:54.264Z,11.97
2018-03-26T02:03:22.069Z,9.63
2018-03-26T02:05:49.624Z,9.03
2018-03-26T02:08:17.139Z,9.07
2018-03-26T02:10:44.648Z,9.40
2018-03-26T02:13:12.138Z,10.20
2018-03-26T02:15:39.630Z,9.47
2018-03-26T02:18:07.131Z,8.90
2018-03-26T02:20:34.598Z,9.90
2018-03-26T02:23:02.092Z,10.77
2018-03-26T02:25:29.574Z,9.27
2018-03-26T02:27:57.056Z,10.03
2018-03-26T02:30:24.536Z,10.70
2018-03-26T02:32:52.030Z,9.50
2018-03-26T02:35:19.566Z,8.73
2018-03-26T02:37:47.115Z,9.90
2018-03-26T02:40:14.602Z,11.80
2018-03-26T02:42:42.085Z,8.60
2018-03-26T02:45:09.576Z,8.57
2018-03-26T02:47:37.059Z,8.57
2018-03-26T02:50:04.546Z,9.57
2018-03-26T02:52:32.062Z,14.70
2018-03-26T02:54:59.553Z,10.73
2018-03-26T02:57:27.041Z,9.20
2018-03-26T02:59:54.538Z,11.00
2018-03-26T03:02:22.029Z,9.50
2018-03-26T03:04:49.534Z,9.63
2018-03-26T03:07:17.058Z,9.23
2018-03-26T03:09:44.557Z,10.77
2018-03-26T03:12:12.086Z,10.73
2018-03-26T03:14:39.569Z,11.80
2018-03-26T03:17:07.072Z,11.10
2018-03-26T03:19:34.578Z,9.93
2018-03-26T03:22:02.070Z,8.77
2018-03-26T03:24:29.548Z,13.07
2018-03-26T03:26:57.028Z,9.80
2018-03-26T03:29:24.501Z,9.10
2018-03-26T03:31:52.020Z,8.33
2018-03-26T03:34:19.533Z,10.23
2018-03-26T03:36:47.029Z,11.10
2018-03-26T03:39:15.074Z,14.43
2018-03-26T03:41:42.570Z,15.00
2018-03-26T03:44:10.063Z,9.57
2018-03-26T03:46:37.565Z,11.43
2018-03-26T03:49:05.141Z,10.83
2018-03-26T03:51:32.622Z,11.00
2018-03-26T03:54:00.130Z,10.80
2018-03-26T03:56:27.637Z,11.00
2018-03-26T03:58:55.113Z,8.50
2018-03-26T04:01:22.610Z,35.57
2018-03-26T04:03:50.089Z,12.80
2018-03-26T04:06:17.580Z,13.90
2018-03-26T04:08:45.062Z,9.50
2018-03-26T04:11:12.765Z,11.43
2018-03-26T04:13:40.262Z,13.47
2018-03-26T04:16:07.770Z,12.10
2018-03-26T04:18:35.258Z,14.53
2018-03-26T04:21:02.761Z,17.73
2018-03-26T04:23:30.257Z,13.30
2018-03-26T04:25:57.789Z,12.13
2018-03-26T04:28:25.297Z,12.03
2018-03-26T04:30:52.815Z,10.70
2018-03-26T04:33:20.316Z,12.33
2018-03-26T04:35:47.792Z,10.00
2018-03-26T04:38:15.275Z,11.63
2018-03-26T04:40:42.851Z,11.57
2018-03-26T04:43:10.385Z,11.53
2018-03-26T04:45:37.879Z,14.67
2018-03-26T04:48:05.373Z,11.33
2018-03-26T04:50:32.849Z,9.37
2018-03-26T04:53:00.346Z,12.33
2018-03-26T04:55:27.820Z,13.00
2018-03-26T04:57:55.313Z,11.83
2018-03-26T05:00:22.820Z,13.17
2018-03-26T05:02:50.321Z,11.00
2018-03-26T05:05:17.848Z,14.93
2018-03-26T05:07:45.361Z,13.60
2018-03-26T05:10:12.861Z,17.33
2018-03-26T05:12:40.358Z,13.00
2018-03-26T05:15:08.020Z,16.00
2018-03-26T05:17:35.518Z,14.00
2018-03-26T05:20:03.061Z,13.23
2018-03-26T05:22:30.575Z,13.57
2018-03-26T05:24:58.101Z,13.97
2018-03-26T05:27:25.599Z,12.30
2018-03-26T05:29:53.091Z,13.77
2018-03-26T05:32:20.586Z,15.40
2018-03-26T05:34:48.077Z,14.07
2018-03-26T05:37:15.594Z,14.40
2018-03-26T05:39:43.094Z,16.70
2018-03-26T05:42:10.656Z,13.77
2018-03-26T05:44:38.172Z,14.73
2018-03-26T05:47:05.769Z,15.27
2018-03-26T05:49:33.302Z,14.63
2018-03-26T05:52:00.845Z,17.20
2018-03-26T05:54:28.334Z,16.83
2018-03-26T05:56:55.836Z,12.67
2018-03-26T05:59:23.339Z,12.90
2018-03-26T06:01:50.832Z,12.90
2018-03-26T06:04:18.329Z,15.03
2018-03-26T06:06:45.827Z,15.53
2018-03-26T06:09:13.325Z,10.90
2018-03-26T06:11:40.836Z,12.97
2018-03-26T06:14:08.394Z,14.93
2018-03-26T06:16:41.651Z,12.73
2018-03-26T06:19:09.307Z,19.47
2018-03-26T06:21:36.870Z,12.43
2018-03-26T06:24:04.487Z,16.83
2018-03-26T06:26:32.569Z,15.63
2018-03-26T06:29:00.132Z,15.23
2018-03-26T06:31:27.663Z,18.93
2018-03-26T06:33:55.234Z,23.73
2018-03-26T06:36:33.534Z,16.87
2018-03-26T06:39:01.876Z,16.10
2018-03-26T06:41:29.427Z,17.43
2018-03-26T06:43:57.054Z,15.37
2018-03-26T06:46:24.550Z,11.43
2018-03-26T06:48:52.041Z,15.60
2018-03-26T06:51:19.596Z,15.23
2018-03-26T06:53:47.098Z,13.23
2018-03-26T06:56:14.602Z,15.27
2018-03-26T06:58:42.102Z,13.93
2018-03-26T07:01:09.616Z,15.30
2018-03-26T07:03:37.142Z,14.40
2018-03-26T07:06:04.637Z,12.93
2018-03-26T07:08:32.222Z,14.67
2018-03-26T07:10:59.717Z,16.13
2018-03-26T07:13:27.242Z,16.17
2018-03-26T07:15:54.760Z,15.07
2018-03-26T07:18:22.269Z,16.60
2018-03-26T07:20:49.852Z,15.30
2018-03-26T07:23:17.550Z,18.13
2018-03-26T07:25:45.051Z,14.00
2018-03-26T07:28:12.558Z,14.60
2018-03-26T07:30:40.061Z,14.90
2018-03-26T07:33:07.582Z,26.57
2018-03-26T07:35:35.067Z,33.03
2018-03-26T07:38:02.626Z,24.07
2018-03-26T07:40:30.117Z,20.33
2018-03-26T07:42:57.632Z,18.03
2018-03-26T07:45:25.210Z,18.20
2018-03-26T07:47:52.765Z,20.00
2018-03-26T07:50:20.271Z,19.23
2018-03-26T07:52:47.878Z,17.93
2018-03-26T07:55:15.750Z,19.63
2018-03-26T07:57:43.244Z,20.17
2018-03-26T08:00:10.881Z,16.60
2018-03-26T08:02:38.377Z,19.40
2018-03-26T08:05:06.142Z,25.33
2018-03-26T08:07:33.641Z,14.47
2018-03-26T08:10:01.143Z,20.73
2018-03-26T08:12:29.100Z,20.67
2018-03-26T08:14:56.591Z,17.00
2018-03-26T08:17:24.409Z,15.90
2018-03-26T08:19:51.925Z,20.70
2018-03-26T08:22:19.416Z,18.83
2018-03-26T08:24:46.918Z,15.23
2018-03-26T08:27:14.452Z,19.43
2018-03-26T08:29:42.287Z,17.53
2018-03-26T08:32:09.936Z,24.03
2018-03-26T08:34:37.532Z,15.87
2018-03-26T08:37:05.142Z,16.47
2018-03-26T08:39:32.649Z,14.80
2018-03-26T08:42:00.401Z,21.93
2018-03-26T08:44:28.058Z,18.13
2018-03-26T08:46:55.908Z,16.60
2018-03-26T08:49:23.394Z,17.53
2018-03-26T08:51:50.900Z,21.07
2018-03-26T08:54:18.405Z,15.87
2018-03-26T08:56:45.885Z,21.67
2018-03-26T08:59:13.417Z,20.67
2018-03-26T09:01:41.037Z,17.13
2018-03-26T09:04:08.541Z,18.73
2018-03-26T09:06:36.034Z,22.03
2018-03-26T09:09:03.656Z,17.13
2018-03-26T09:11:31.170Z,17.53
2018-03-26T09:13:58.670Z,17.83
2018-03-26T09:16:26.182Z,20.10
2018-03-26T09:18:53.706Z,20.83
2018-03-26T09:21:21.212Z,21.37
2018-03-26T09:23:48.721Z,20.00
2018-03-26T09:26:16.392Z,22.23
2018-03-26T09:28:43.889Z,16.97
2018-03-26T09:31:11.729Z,19.23
2018-03-26T09:33:39.285Z,20.53
2018-03-26T09:36:06.829Z,18.03
2018-03-26T09:38:34.374Z,20.47
2018-03-26T09:41:01.886Z,18.57
2018-03-26T09:43:29.403Z,17.87
2018-03-26T09:45:56.949Z,23.00
2018-03-26T09:48:24.835Z,20.10
2018-03-26T09:50:52.349Z,20.00
2018-03-26T09:53:20.004Z,24.77
2018-03-26T09:55:47.651Z,22.63
2018-03-26T09:58:15.161Z,19.00
2018-03-26T10:00:48.655Z,21.33
2018-03-26T10:03:16.193Z,22.33
2018-03-26T10:05:43.731Z,24.10
2018-03-26T10:08:11.419Z,19.37
2018-03-26T10:10:38.977Z,20.53
2018-03-26T10:13:06.485Z,21.70
2018-03-26T10:15:34.134Z,25.03
2018-03-26T10:18:01.629Z,22.17
2018-03-26T10:20:29.294Z,25.77
2018-03-26T10:22:56.854Z,19.63
2018-03-26T10:25:24.353Z,21.10
2018-03-26T10:27:51.949Z,21.93
2018-03-26T10:30:19.662Z,28.00
2018-03-26T10:32:47.360Z,25.27
2018-03-26T10:35:14.901Z,26.70
2018-03-26T10:37:42.405Z,26.97
2018-03-26T10:40:10.126Z,26.17
2018-03-26T10:42:37.776Z,22.80
2018-03-26T10:45:05.314Z,31.40
2018-03-26T10:47:32.810Z,31.93
2018-03-26T10:50:00.937Z,25.63
2018-03-26T10:52:28.446Z,30.27
2018-03-26T10:54:55.977Z,24.33
2018-03-26T10:57:23.481Z,22.20
2018-03-26T10:59:51.057Z,25.43
2018-03-26T11:02:18.569Z,26.33
2018-03-26T11:04:46.085Z,25.17
2018-03-26T11:07:13.626Z,25.17
2018-03-26T11:09:41.196Z,27.87
2018-03-26T11:12:08.700Z,25.90
2018-03-26T11:14:36.208Z,26.00
2018-03-26T11:17:03.710Z,29.03
2018-03-26T11:19:31.227Z,27.33
2018-03-26T11:21:58.737Z,26.50
2018-03-26T11:24:26.291Z,26.50
2018-03-26T11:26:53.773Z,31.23
2018-03-26T11:29:21.287Z,29.07
2018-03-26T11:31:48.779Z,27.33
2018-03-26T11:34:16.316Z,25.10
2018-03-26T11:36:43.829Z,29.20
2018-03-26T11:39:11.831Z,28.20
2018-03-26T11:41:39.325Z,24.40
2018-03-26T11:44:06.816Z,24.27
2018-03-26T11:46:34.302Z,27.27
2018-03-26T11:49:02.015Z,28.53
2018-03-26T11:51:29.738Z,24.10
2018-03-26T11:53:57.246Z,25.20
2018-03-26T11:56:24.749Z,25.13
2018-03-26T11:58:52.380Z,25.07
2018-03-26T12:01:19.875Z,32.07
2018-03-26T12:03:47.377Z,21.40
2018-03-26T12:06:14.907Z,21.33
2018-03-26T12:08:42.406Z,18.17
2018-03-26T12:11:09.960Z,21.33
2018-03-26T12:13:37.466Z,27.80
2018-03-26T12:16:04.953Z,28.50
2018-03-26T12:18:32.441Z,18.93
2018-03-26T12:20:59.990Z,16.70
2018-03-26T12:23:33.634Z,13.63
2018-03-26T12:26:01.106Z,14.13
2018-03-26T12:28:34.316Z,14.70
2018-03-26T12:31:01.761Z,18.57
2018-03-26T12:33:29.384Z,18.83
2018-03-26T12:35:56.979Z,18.50
2018-03-26T12:38:24.492Z,16.50
2018-03-26T12:40:54.894Z,18.37
2018-03-26T12:43:22.502Z,17.07
2018-03-26T12:45:55.836Z,18.03
2018-03-26T12:48:23.282Z,20.87
2018-03-26T12:50:56.714Z,16.97
2018-03-26T12:53:24.251Z,23.13
2018-03-26T12:55:51.909Z,22.47
2018-03-26T12:58:25.347Z,25.97
2018-03-26T13:00:58.662Z,22.80
2018-03-26T13:03:26.113Z,23.17
2018-03-26T13:05:53.641Z,19.57
2018-03-26T13:08:21.153Z,24.20
2018-03-26T13:10:48.661Z,31.40
2018-03-26T13:13:16.161Z,20.80
2018-03-26T13:15:43.709Z,22.73
2018-03-26T13:18:11.219Z,25.97
2018-03-26T13:20:38.708Z,18.03
2018-03-26T13:23:06.201Z,21.23
2018-03-26T13:25:33.698Z,19.53
2018-03-26T13:28:01.222Z,22.80
2018-03-26T13:30:28.710Z,22.30
2018-03-26T13:32:56.213Z,17.90
2018-03-26T13:35:23.700Z,24.63
2018-03-26T13:37:51.200Z,25.40
2018-03-26T13:40:18.714Z,20.27
2018-03-26T13:42:46.214Z,20.17
2018-03-26T13:45:13.701Z,22.33
2018-03-26T13:47:41.656Z,20.67
2018-03-26T13:50:09.182Z,22.93
2018-03-26T13:52:36.734Z,23.33
2018-03-26T13:55:04.321Z,26.47
2018-03-26T13:57:31.831Z,26.93
2018-03-26T13:59:59.320Z,25.07
2018-03-26T14:02:26.825Z,33.27
2018-03-26T14:04:54.313Z,24.87
2018-03-26T14:07:21.829Z,25.13
2018-03-26T14:09:55.112Z,24.57
2018-03-26T14:12:28.452Z,23.10
2018-03-26T14:15:01.787Z,29.17
2018-03-26T14:17:35.107Z,22.43
2018-03-26T14:20:02.709Z,17.60
2018-03-26T14:22:30.217Z,17.77
2018-03-26T14:24:57.702Z,22.37
2018-03-26T14:27:25.206Z,21.60
2018-03-26T14:29:52.698Z,20.23
2018-03-26T14:32:20.429Z,22.23
2018-03-26T14:34:54.029Z,21.07
2018-03-26T14:37:21.877Z,23.10
2018-03-26T14:39:49.386Z,20.63
2018-03-26T14:42:16.878Z,21.17
2018-03-26T14:44:44.646Z,23.53
2018-03-26T14:47:12.151Z,24.20
2018-03-26T14:49:39.653Z,25.70
2018-03-26T14:52:07.190Z,20.73
2018-03-26T14:54:34.701Z,21.57
2018-03-26T14:57:02.273Z,27.63
2018-03-26T14:59:29.832Z,23.17
2018-03-26T15:01:57.342Z,27.47
2018-03-26T15:04:24.859Z,25.63
2018-03-26T15:06:52.372Z,24.57
2018-03-26T15:09:19.867Z,25.40
2018-03-26T15:11:47.357Z,29.90
2018-03-26T15:14:14.879Z,21.30
2018-03-26T15:16:42.368Z,25.97
2018-03-26T15:19:09.856Z,28.93
2018-03-26T15:21:37.345Z,23.83
2018-03-26T15:24:04.908Z,25.90
2018-03-26T15:26:32.440Z,25.90
2018-03-26T15:28:59.928Z,23.37
2018-03-26T15:31:27.420Z,25.87
2018-03-26T15:33:54.916Z,26.30
2018-03-26T15:36:22.423Z,23.80
2018-03-26T15:38:50.219Z,24.07
2018-03-26T15:41:18.338Z,27.90
2018-03-26T15:43:46.119Z,24.93
2018-03-26T15:46:13.609Z,28.03
2018-03-26T15:48:41.109Z,26.60
2018-03-26T15:51:08.597Z,28.57
2018-03-26T15:53:36.121Z,28.87
2018-03-26T15:56:03.682Z,29.57
2018-03-26T15:58:31.258Z,31.70
2018-03-26T16:00:58.772Z,33.17
2018-03-26T16:03:30.716Z,34.60
2018-03-26T16:05:58.230Z,29.73
2018-03-26T16:08:25.771Z,27.93
2018-03-26T16:10:53.281Z,29.73
2018-03-26T16:13:20.907Z,29.03
2018-03-26T16:15:48.398Z,28.90
2018-03-26T16:18:15.893Z,30.60
2018-03-26T16:20:43.524Z,33.80
2018-03-26T16:23:11.328Z,38.93
2018-03-26T16:25:39.049Z,38.03
2018-03-26T16:28:07.221Z,39.20
2018-03-26T16:30:35.219Z,34.13
2018-03-26T16:33:03.484Z,35.33
2018-03-26T16:35:32.540Z,31.80
2018-03-26T16:38:01.178Z,29.83
2018-03-26T16:40:29.716Z,26.70
2018-03-26T16:42:59.442Z,27.80
2018-03-26T16:45:28.077Z,27.23
2018-03-26T16:47:56.910Z,27.97
2018-03-26T16:50:26.729Z,29.83
2018-03-26T16:52:55.556Z,31.37
2018-03-26T16:55:24.582Z,29.40
2018-03-26T16:57:53.416Z,30.03
2018-03-26T17:00:22.844Z,28.67
2018-03-26T17:02:51.673Z,31.43
2018-03-26T17:05:20.309Z,31.60
2018-03-26T17:07:49.542Z,28.67
2018-03-26T17:10:18.564Z,29.20
2018-03-26T17:12:47.400Z,27.13
2018-03-26T17:15:16.035Z,30.53
2018-03-26T17:17:44.874Z,28.87
2018-03-26T17:20:13.701Z,29.90
2018-03-26T17:22:42.755Z,27.60
2018-03-26T17:25:13.480Z,30.07
2018-03-26T17:27:42.069Z,30.23
2018-03-26T17:30:10.813Z,27.50
2018-03-26T17:32:40.225Z,21.70
2018-03-26T17:35:08.869Z,25.50
2018-03-26T17:37:37.602Z,27.33
2018-03-26T17:40:06.338Z,26.70
2018-03-26T17:42:35.073Z,25.03
2018-03-26T17:45:04.012Z,27.07
2018-03-26T17:47:33.227Z,25.97
2018-03-26T17:50:02.267Z,30.53
2018-03-26T17:52:30.719Z,28.00
2018-03-26T17:54:59.535Z,32.53
2018-03-26T17:57:28.364Z,33.33
2018-03-26T17:59:57.206Z,30.27
2018-03-26T18:02:26.037Z,27.93
2018-03-26T18:04:54.862Z,35.53
2018-03-26T18:07:23.604Z,33.20
2018-03-26T18:09:52.446Z,30.30
2018-03-26T18:12:21.360Z,33.93
2018-03-26T18:14:50.191Z,29.57
2018-03-26T18:17:19.037Z,26.47
2018-03-26T18:19:47.870Z,24.73
2018-03-26T18:22:17.089Z,30.47
2018-03-26T18:24:45.728Z,27.57
2018-03-26T18:27:14.947Z,26.07
2018-03-26T18:29:43.793Z,22.70
2018-03-26T18:32:12.641Z,22.60
2018-03-26T18:34:41.646Z,23.20
2018-03-26T18:37:10.681Z,20.87
2018-03-26T18:39:39.512Z,25.13
2018-03-26T18:42:08.058Z,22.47
2018-03-26T18:44:36.792Z,25.17
2018-03-26T18:47:05.813Z,20.87
2018-03-26T18:49:34.458Z,24.10
2018-03-26T18:52:03.284Z,18.83
2018-03-26T18:54:32.309Z,21.63
2018-03-26T18:57:01.216Z,20.27
2018-03-26T18:59:30.172Z,21.60
2018-03-26T19:01:58.814Z,22.73
2018-03-26T19:04:28.036Z,23.53
2018-03-26T19:06:56.875Z,22.10
2018-03-26T19:09:25.714Z,23.47
2018-03-26T19:11:54.731Z,24.77
2018-03-26T19:14:23.767Z,28.03
2018-03-26T19:16:52.605Z,31.73
2018-03-26T19:19:21.434Z,32.23
2018-03-26T19:21:49.973Z,25.73
2018-03-26T19:24:18.898Z,25.03
2018-03-26T19:26:47.938Z,28.50
2018-03-26T19:29:16.956Z,28.10
2018-03-26T19:31:45.797Z,23.73
2018-03-26T19:34:14.434Z,27.67
2018-03-26T19:36:43.462Z,23.90
2018-03-26T19:39:12.096Z,24.10
2018-03-26T19:41:40.927Z,21.57
2018-03-26T19:44:09.957Z,22.93
2018-03-26T19:46:38.986Z,21.20
2018-03-26T19:49:08.211Z,20.13
2018-03-26T19:51:37.044Z,19.43
2018-03-26T19:54:05.688Z,19.73
2018-03-26T19:56:33.783Z,19.40
2018-03-26T19:59:01.617Z,22.57
2018-03-26T20:01:29.454Z,19.13
2018-03-26T20:03:57.353Z,21.30
2018-03-26T20:06:25.224Z,20.20
2018-03-26T20:08:54.160Z,23.87
2018-03-26T20:11:24.368Z,16.90
2018-03-26T20:13:53.112Z,21.77
2018-03-26T20:16:22.035Z,18.10
2018-03-26T20:18:50.878Z,19.67
2018-03-26T20:21:18.722Z,19.23
2018-03-26T20:23:46.579Z,19.47
2018-03-26T20:26:15.118Z,18.87
2018-03-26T20:28:42.983Z,16.20
2018-03-26T20:31:10.818Z,16.57
2018-03-26T20:33:39.746Z,18.60
2018-03-26T20:36:08.580Z,17.03
2018-03-26T20:38:37.211Z,17.17
2018-03-26T20:41:05.854Z,19.13
2018-03-26T20:43:34.677Z,19.47
2018-03-26T20:46:03.377Z,19.63
2018-03-26T20:48:31.957Z,19.37
2018-03-26T20:51:00.790Z,16.83
2018-03-26T20:53:29.627Z,20.27
2018-03-26T20:55:58.461Z,19.57
2018-03-26T20:58:27.283Z,19.30
2018-03-26T21:00:55.835Z,18.63
2018-03-26T21:03:24.579Z,20.60
2018-03-26T21:05:53.585Z,19.57
2018-03-26T21:08:21.782Z,21.63
2018-03-26T21:10:50.476Z,22.63
2018-03-26T21:13:19.005Z,27.43
2018-03-26T21:15:47.934Z,26.30
2018-03-26T21:18:16.767Z,24.97
2018-03-26T21:20:45.619Z,23.83
2018-03-26T21:23:14.239Z,21.67
2018-03-26T21:25:42.245Z,28.93
2018-03-26T21:28:10.041Z,26.80
2018-03-26T21:30:37.788Z,28.77
2018-03-26T21:33:05.641Z,26.70
2018-03-26T21:35:33.341Z,28.73
2018-03-26T21:38:01.165Z,28.60
2018-03-26T21:40:28.839Z,30.57
2018-03-26T21:42:56.347Z,29.87
2018-03-26T21:45:23.843Z,27.87
2018-03-26T21:47:51.337Z,30.37
2018-03-26T21:50:19.017Z,31.87
2018-03-26T21:52:46.525Z,30.97
2018-03-26T21:55:14.174Z,31.30
2018-03-26T21:57:41.663Z,31.97
2018-03-26T22:00:24.178Z,33.27
2018-03-26T22:02:51.834Z,34.60
2018-03-26T22:05:19.363Z,32.00
2018-03-26T22:07:47.138Z,34.83
2018-03-26T22:10:15.037Z,32.50
2018-03-26T22:12:42.643Z,30.13
2018-03-26T22:15:10.341Z,31.77
2018-03-26T22:17:38.144Z,32.43
2018-03-26T22:20:05.648Z,36.10
2018-03-26T22:22:33.208Z,31.63
2018-03-26T22:25:00.910Z,34.30
2018-03-26T22:27:28.429Z,35.73
2018-03-26T22:29:55.943Z,38.83
2018-03-26T22:32:23.721Z,33.13
2018-03-26T22:34:51.361Z,36.27
2018-03-26T22:37:18.866Z,42.03
2018-03-26T22:39:46.565Z,33.13
2018-03-26T22:42:14.136Z,37.80
2018-03-26T22:44:41.857Z,37.40
2018-03-26T22:47:09.323Z,34.70
2018-03-26T22:49:36.824Z,38.43
2018-03-26T22:52:04.322Z,38.43
2018-03-26T22:54:32.193Z,34.20
2018-03-26T22:56:59.676Z,41.97
2018-03-26T22:59:27.169Z,38.17
2018-03-26T23:01:54.778Z,41.10
2018-03-26T23:04:22.582Z,36.80
2018-03-26T23:06:50.102Z,40.67
2018-03-26T23:09:17.597Z,37.73
2018-03-26T23:11:45.442Z,39.70
2018-03-26T23:14:13.056Z,41.47
2018-03-26T23:16:41.041Z,39.33
2018-03-26T23:19:09.089Z,39.67
2018-03-26T23:21:36.943Z,43.03
2018-03-26T23:24:04.646Z,43.77
2018-03-26T23:26:32.234Z,45.87
2018-03-26T23:28:59.952Z,43.47
2018-03-26T23:31:27.944Z,40.63
2018-03-26T23:33:55.603Z,41.93
2018-03-26T23:36:23.094Z,39.53
2018-03-26T23:38:50.594Z,37.93
2018-03-26T23:41:18.093Z,41.20
2018-03-26T23:43:45.593Z,43.07
2018-03-26T23:46:13.213Z,41.77
2018-03-26T23:48:40.718Z,42.07
2018-03-26T23:51:08.439Z,40.53
2018-03-26T23:53:36.043Z,38.87
2018-03-26T23:56:03.742Z,39.03
2018-03-26T23:58:31.547Z,35.63
